createdAt,value
2023-03-13T00:01:26.590Z,8.54
2023-03-13T00:03:55.761Z,8.33
2023-03-13T00:06:26.982Z,8.03
2023-03-13T00:08:56.521Z,8.13
2023-03-13T00:11:26.391Z,8.22
2023-03-13T00:13:57.965Z,8.22
2023-03-13T00:16:28.153Z,8.54
2023-03-13T00:18:57.125Z,8.50
2023-03-13T00:21:26.711Z,7.80
2023-03-13T00:23:55.635Z,8.29
2023-03-13T00:26:25.310Z,8.58
2023-03-13T00:28:53.685Z,7.98
2023-03-13T00:31:30.788Z,7.35
2023-03-13T00:34:01.907Z,7.83
2023-03-13T00:36:34.455Z,7.21
2023-03-13T00:39:04.448Z,7.39
2023-03-13T00:41:36.504Z,7.31
2023-03-13T00:44:05.877Z,7.38
2023-03-13T00:46:33.885Z,7.40
2023-03-13T00:49:01.611Z,7.56
2023-03-13T00:51:29.911Z,7.72
2023-03-13T00:54:02.140Z,7.65
2023-03-13T00:56:29.817Z,7.78
2023-03-13T00:58:59.837Z,7.40
2023-03-13T01:01:32.993Z,7.66
2023-03-13T01:04:04.999Z,7.84
2023-03-13T01:06:35.505Z,7.78
2023-03-13T01:09:05.224Z,7.42
2023-03-13T01:11:35.642Z,7.45
2023-03-13T01:14:06.103Z,7.72
2023-03-13T01:16:35.628Z,8.25
2023-03-13T01:19:12.526Z,8.02
2023-03-13T01:21:42.405Z,7.89
2023-03-13T01:24:10.265Z,8.37
2023-03-13T01:26:37.864Z,8.61
2023-03-13T01:29:05.348Z,8.72
2023-03-13T01:31:35.485Z,8.66
2023-03-13T01:34:11.743Z,8.40
2023-03-13T01:36:39.767Z,8.49
2023-03-13T01:39:08.137Z,8.40
2023-03-13T01:41:38.601Z,8.51
2023-03-13T01:44:06.983Z,8.90
2023-03-13T01:46:37.945Z,8.31
2023-03-13T01:49:11.109Z,8.34
2023-03-13T01:51:43.468Z,8.61
2023-03-13T01:54:21.444Z,8.93
2023-03-13T01:56:53.172Z,8.87
2023-03-13T01:59:25.950Z,8.52
2023-03-13T02:01:57.764Z,8.58
2023-03-13T02:04:28.712Z,8.39
2023-03-13T02:06:58.507Z,8.99
2023-03-13T02:09:29.431Z,9.07
2023-03-13T02:12:15.818Z,8.64
2023-03-13T02:14:45.053Z,8.65
2023-03-13T02:17:14.079Z,9.06
2023-03-13T02:19:49.635Z,8.74
2023-03-13T02:22:20.313Z,8.70
2023-03-13T02:25:08.924Z,8.77
2023-03-13T02:27:36.719Z,8.72
2023-03-13T02:30:08.660Z,8.82
2023-03-13T02:32:37.884Z,8.90
2023-03-13T02:35:11.955Z,8.79
2023-03-13T02:37:43.611Z,8.93
2023-03-13T02:40:17.308Z,8.84
2023-03-13T02:42:46.529Z,8.62
2023-03-13T02:45:17.640Z,8.72
2023-03-13T02:47:45.532Z,8.75
2023-03-13T02:50:13.534Z,8.65
2023-03-13T02:52:55.627Z,8.87
2023-03-13T02:55:33.177Z,8.75
2023-03-13T02:58:01.003Z,8.81
2023-03-13T03:00:30.526Z,8.81
2023-03-13T03:02:58.269Z,8.57
2023-03-13T03:05:26.788Z,8.35
2023-03-13T03:07:54.278Z,8.38
2023-03-13T03:10:22.216Z,7.94
2023-03-13T03:12:50.665Z,7.96
2023-03-13T03:15:18.561Z,8.06
2023-03-13T03:17:48.304Z,8.32
2023-03-13T03:20:16.409Z,8.50
2023-03-13T03:22:44.214Z,8.03
2023-03-13T03:25:12.209Z,8.20
2023-03-13T03:27:40.334Z,8.42
2023-03-13T03:30:09.096Z,8.67
2023-03-13T03:32:37.155Z,8.66
2023-03-13T03:35:05.860Z,8.89
2023-03-13T03:37:34.530Z,8.27
2023-03-13T03:40:05.888Z,8.13
2023-03-13T03:42:34.259Z,8.15
2023-03-13T03:45:02.805Z,8.25
2023-03-13T03:47:31.389Z,7.97
2023-03-13T03:50:00.362Z,7.91
2023-03-13T03:52:28.195Z,8.15
2023-03-13T03:54:55.853Z,7.87
2023-03-13T03:57:24.642Z,8.12
2023-03-13T03:59:52.109Z,7.85
2023-03-13T04:02:20.012Z,7.42
2023-03-13T04:04:48.378Z,7.56
2023-03-13T04:07:18.432Z,7.58
2023-03-13T04:09:46.499Z,7.60
2023-03-13T04:12:15.863Z,7.62
2023-03-13T04:14:46.670Z,7.93
2023-03-13T04:17:17.036Z,7.84
2023-03-13T04:19:45.828Z,8.04
2023-03-13T04:22:13.753Z,7.74
2023-03-13T04:24:43.276Z,8.06
2023-03-13T04:27:11.023Z,8.07
2023-03-13T04:29:38.823Z,8.39
2023-03-13T04:32:07.594Z,8.55
2023-03-13T04:34:35.777Z,8.26
2023-03-13T04:37:03.808Z,8.05
2023-03-13T04:39:33.235Z,8.22
2023-03-13T04:42:02.725Z,7.85
2023-03-13T04:44:32.784Z,8.04
2023-03-13T04:47:02.159Z,7.85
2023-03-13T04:49:30.635Z,7.68
2023-03-13T04:51:58.497Z,7.76
2023-03-13T04:54:27.892Z,7.62
2023-03-13T04:56:57.144Z,7.83
2023-03-13T04:59:25.377Z,7.88
2023-03-13T05:01:54.125Z,7.94
2023-03-13T05:04:22.857Z,8.14
2023-03-13T05:06:52.594Z,7.83
2023-03-13T05:09:21.695Z,7.74
2023-03-13T05:11:50.765Z,8.10
2023-03-13T05:14:19.576Z,8.14
2023-03-13T05:16:48.873Z,8.12
2023-03-13T05:19:22.579Z,8.22
2023-03-13T05:21:56.791Z,8.13
2023-03-13T05:24:26.558Z,8.05
2023-03-13T05:26:56.180Z,8.11
2023-03-13T05:29:25.363Z,7.68
2023-03-13T05:31:55.473Z,8.00
2023-03-13T05:34:25.053Z,7.89
2023-03-13T05:36:53.525Z,7.74
2023-03-13T05:39:23.780Z,7.91
2023-03-13T05:41:52.026Z,7.80
2023-03-13T05:44:20.338Z,8.07
2023-03-13T05:46:50.182Z,7.90
2023-03-13T05:49:18.352Z,7.96
2023-03-13T05:51:48.410Z,7.34
2023-03-13T05:54:16.714Z,7.70
2023-03-13T05:56:50.561Z,7.79
2023-03-13T05:59:23.246Z,7.86
2023-03-13T06:01:53.647Z,7.80
2023-03-13T06:04:25.082Z,7.21
2023-03-13T06:09:31.604Z,6.96
2023-03-13T06:12:00.574Z,7.34
2023-03-13T06:14:28.554Z,7.06
2023-03-13T06:16:57.174Z,7.56
2023-03-13T06:19:25.875Z,7.32
2023-03-13T06:21:53.457Z,7.26
2023-03-13T06:24:22.013Z,7.41
2023-03-13T06:26:51.541Z,7.87
2023-03-13T06:29:19.790Z,7.58
2023-03-13T06:31:47.936Z,7.91
2023-03-13T06:34:16.966Z,8.05
2023-03-13T06:36:44.959Z,7.90
2023-03-13T06:39:13.400Z,8.01
2023-03-13T06:41:41.134Z,8.16
2023-03-13T06:44:11.274Z,7.87
2023-03-13T06:46:42.800Z,7.79
2023-03-13T06:49:10.635Z,7.79
2023-03-13T06:51:38.422Z,7.85
2023-03-13T06:54:07.093Z,8.38
2023-03-13T06:56:35.733Z,7.85
2023-03-13T06:59:05.905Z,7.83
2023-03-13T07:01:40.933Z,7.85
2023-03-13T07:04:13.598Z,7.93
2023-03-13T07:06:43.081Z,8.24
2023-03-13T07:09:12.488Z,8.81
2023-03-13T07:11:44.075Z,8.32
2023-03-13T07:14:17.429Z,8.53
2023-03-13T07:16:47.662Z,8.20
2023-03-13T07:19:16.439Z,8.69
2023-03-13T07:21:45.086Z,8.90
2023-03-13T07:24:13.623Z,8.74
2023-03-13T07:26:48.689Z,8.84
2023-03-13T07:29:25.896Z,9.14
2023-03-13T07:31:53.745Z,9.42
2023-03-13T07:34:30.462Z,9.19
2023-03-13T07:37:03.113Z,9.20
2023-03-13T07:39:31.066Z,9.37
2023-03-13T07:41:59.856Z,9.21
2023-03-13T07:44:31.587Z,9.07
2023-03-13T07:47:03.625Z,9.55
2023-03-13T07:49:32.528Z,9.90
2023-03-13T07:52:05.932Z,9.94
2023-03-13T07:54:35.068Z,9.88
2023-03-13T07:57:03.548Z,9.52
2023-03-13T07:59:33.680Z,10.02
2023-03-13T08:02:03.589Z,10.16
2023-03-13T08:04:32.113Z,10.29
2023-03-13T08:07:07.725Z,9.80
2023-03-13T08:09:36.148Z,9.79
2023-03-13T08:12:05.318Z,9.84
2023-03-13T08:14:34.200Z,10.38
2023-03-13T08:17:04.609Z,10.28
2023-03-13T08:19:33.630Z,10.57
2023-03-13T08:22:03.839Z,10.49
2023-03-13T08:24:38.581Z,10.51
2023-03-13T08:27:06.628Z,10.55
2023-03-13T08:29:34.758Z,10.47
2023-03-13T08:32:03.013Z,10.93
2023-03-13T08:34:31.840Z,11.32
2023-03-13T08:37:02.728Z,11.01
2023-03-13T08:39:30.703Z,10.76
2023-03-13T08:42:01.483Z,11.22
2023-03-13T08:44:29.681Z,11.30
2023-03-13T08:47:00.561Z,11.39
2023-03-13T08:49:30.154Z,11.68
2023-03-13T08:51:58.159Z,12.10
2023-03-13T08:54:26.054Z,11.99
2023-03-13T08:56:54.096Z,11.95
2023-03-13T08:59:22.866Z,11.27
2023-03-13T09:01:50.774Z,11.37
2023-03-13T09:04:19.650Z,11.82
2023-03-13T09:06:49.236Z,11.68
2023-03-13T09:09:17.250Z,12.09
2023-03-13T09:11:45.268Z,11.82
2023-03-13T09:14:13.034Z,11.78
2023-03-13T09:16:41.053Z,11.98
2023-03-13T09:19:09.340Z,12.43
2023-03-13T09:21:43.967Z,12.69
2023-03-13T09:24:16.666Z,12.80
2023-03-13T09:27:00.167Z,12.77
2023-03-13T09:29:33.499Z,12.79
2023-03-13T09:32:02.118Z,12.83
2023-03-13T09:34:30.415Z,13.13
2023-03-13T09:37:01.780Z,13.50
2023-03-13T09:39:30.573Z,13.81
2023-03-13T09:42:10.302Z,14.16
2023-03-13T09:44:47.993Z,14.53
2023-03-13T09:47:33.675Z,14.65
2023-03-13T09:50:13.264Z,14.58
2023-03-13T09:52:41.688Z,15.08
2023-03-13T09:55:24.871Z,14.24
2023-03-13T09:58:21.561Z,15.03
2023-03-13T10:00:58.470Z,15.48
2023-03-13T10:03:39.656Z,15.52
2023-03-13T10:06:20.732Z,14.65
2023-03-13T10:08:49.748Z,14.93
2023-03-13T10:11:24.732Z,14.99
2023-03-13T10:14:13.612Z,15.33
2023-03-13T10:16:48.527Z,15.95
2023-03-13T10:19:22.373Z,16.30
2023-03-13T10:21:53.091Z,15.86
2023-03-13T10:24:32.831Z,15.84
2023-03-13T10:27:04.554Z,15.80
2023-03-13T10:29:34.505Z,15.48
2023-03-13T10:32:04.887Z,15.78
2023-03-13T10:34:57.198Z,15.76
2023-03-13T10:37:33.943Z,15.87
2023-03-13T10:40:15.509Z,15.39
2023-03-13T10:42:45.401Z,16.31
2023-03-13T10:45:23.913Z,16.03
2023-03-13T10:48:13.705Z,16.49
2023-03-13T10:50:47.568Z,16.50
2023-03-13T10:53:40.489Z,17.03
2023-03-13T10:56:19.654Z,16.81
2023-03-13T10:58:51.506Z,16.83
2023-03-13T11:01:19.571Z,16.89
2023-03-13T11:03:48.834Z,17.09
2023-03-13T11:06:27.688Z,16.82
2023-03-13T11:09:13.722Z,17.35
2023-03-13T11:11:53.150Z,17.08
2023-03-13T11:14:26.177Z,17.10
2023-03-13T11:17:05.390Z,17.38
2023-03-13T11:19:40.912Z,17.56
2023-03-13T11:22:19.090Z,17.80
2023-03-13T11:25:06.021Z,17.38
2023-03-13T11:27:52.267Z,17.31
2023-03-13T11:30:48.532Z,17.21
2023-03-13T11:33:25.697Z,17.71
2023-03-13T11:35:54.789Z,17.70
2023-03-13T11:39:02.659Z,17.69
2023-03-13T11:41:40.090Z,17.35
2023-03-13T11:44:28.461Z,17.87
2023-03-13T11:47:09.525Z,18.02
2023-03-13T11:49:46.530Z,18.43
2023-03-13T11:52:34.072Z,18.47
2023-03-13T11:58:30.986Z,18.91
2023-03-13T12:01:18.699Z,18.84
2023-03-13T12:06:41.977Z,18.98
2023-03-13T12:09:17.697Z,19.06
2023-03-13T12:12:05.353Z,18.82
2023-03-13T12:14:40.665Z,18.00
2023-03-13T12:17:31.260Z,18.33
2023-03-13T12:20:09.292Z,18.31
2023-03-13T12:22:51.617Z,18.21
2023-03-13T12:25:30.895Z,17.98
2023-03-13T12:28:28.859Z,18.38
2023-03-13T12:31:18.031Z,18.12
2023-03-13T12:33:56.656Z,17.93
2023-03-13T12:36:42.198Z,17.44
2023-03-13T12:42:41.028Z,17.94
2023-03-13T12:45:16.984Z,18.43
2023-03-13T12:48:05.556Z,18.86
2023-03-13T12:51:14.145Z,19.38
2023-03-13T12:54:02.483Z,19.14
2023-03-13T12:56:43.520Z,19.00
2023-03-13T12:59:41.609Z,18.98
2023-03-13T13:02:22.573Z,19.40
2023-03-13T13:04:56.825Z,19.18
2023-03-13T13:07:29.760Z,19.00
2023-03-13T13:10:11.681Z,18.42
2023-03-13T13:12:48.586Z,17.74
2023-03-13T13:15:27.535Z,17.99
2023-03-13T13:18:00.933Z,18.57
2023-03-13T13:20:38.746Z,18.30
2023-03-13T13:23:21.984Z,17.74
2023-03-13T13:26:26.960Z,17.90
2023-03-13T13:29:01.305Z,18.27
2023-03-13T13:31:49.873Z,18.52
2023-03-13T13:34:35.591Z,18.22
2023-03-13T13:37:19.505Z,17.89
2023-03-13T13:39:52.899Z,18.28
2023-03-13T13:42:42.258Z,18.56
2023-03-13T13:45:16.750Z,18.25
2023-03-13T13:47:52.477Z,18.01
2023-03-13T13:50:30.596Z,18.08
2023-03-13T13:53:34.930Z,18.18
2023-03-13T13:56:32.830Z,18.54
2023-03-13T13:59:21.383Z,18.92
2023-03-13T14:01:53.733Z,18.48
2023-03-13T14:04:30.655Z,18.70
2023-03-13T14:07:04.557Z,18.56
2023-03-13T14:09:51.529Z,18.50
2023-03-13T14:12:35.102Z,18.22
2023-03-13T14:15:17.688Z,17.84
2023-03-13T14:17:49.913Z,17.80
2023-03-13T14:20:44.864Z,18.27
2023-03-13T14:23:14.753Z,18.07
2023-03-13T14:25:59.534Z,18.29
2023-03-13T14:31:35.725Z,17.97
2023-03-13T14:34:06.178Z,17.97
2023-03-13T14:36:51.919Z,18.27
2023-03-13T14:39:23.506Z,17.65
2023-03-13T14:41:54.046Z,17.86
2023-03-13T14:44:31.826Z,18.29
2023-03-13T14:47:07.644Z,18.45
2023-03-13T14:49:49.868Z,18.23
2023-03-13T14:52:29.779Z,17.84
2023-03-13T14:55:10.756Z,17.91
2023-03-13T14:57:56.773Z,18.22
2023-03-13T15:03:17.097Z,17.90
2023-03-13T15:05:50.628Z,17.30
2023-03-13T15:08:24.578Z,17.38
2023-03-13T15:10:53.347Z,17.32
2023-03-13T15:13:37.605Z,16.76
2023-03-13T15:16:18.718Z,17.15
2023-03-13T15:19:01.769Z,17.21
2023-03-13T15:21:35.607Z,17.21
2023-03-13T15:24:14.787Z,17.30
2023-03-13T15:26:43.204Z,17.98
2023-03-13T15:29:13.777Z,17.47
2023-03-13T15:31:46.780Z,17.58
2023-03-13T15:34:25.415Z,17.45
2023-03-13T15:36:55.521Z,17.63
2023-03-13T15:39:25.524Z,17.13
2023-03-13T15:41:54.820Z,17.47
2023-03-13T15:44:27.609Z,17.82
2023-03-13T15:47:05.663Z,18.03
2023-03-13T15:49:36.728Z,18.00
2023-03-13T15:52:26.645Z,17.98
2023-03-13T15:55:12.520Z,17.76
2023-03-13T15:57:46.289Z,17.71
2023-03-13T16:00:27.598Z,17.70
2023-03-13T16:03:05.586Z,17.89
2023-03-13T16:08:34.647Z,17.78
2023-03-13T16:11:04.205Z,17.90
2023-03-13T16:13:44.831Z,17.80
2023-03-13T16:16:25.527Z,17.63
2023-03-13T16:18:56.404Z,17.70
2023-03-13T16:21:35.593Z,17.75
2023-03-13T16:24:05.744Z,17.45
2023-03-13T16:26:41.688Z,17.59
2023-03-13T16:29:22.554Z,17.09
2023-03-13T16:31:51.651Z,17.06
2023-03-13T16:34:26.147Z,17.32
2023-03-13T16:36:55.577Z,17.30
2023-03-13T16:39:26.664Z,17.20
2023-03-13T16:41:54.752Z,17.11
2023-03-13T16:44:27.434Z,16.68
2023-03-13T16:47:05.547Z,16.80
2023-03-13T16:49:42.693Z,16.68
2023-03-13T16:52:17.891Z,16.61
2023-03-13T16:54:58.588Z,16.57
2023-03-13T16:57:31.706Z,16.61
2023-03-13T17:00:16.376Z,16.73
2023-03-13T17:02:50.098Z,16.96
2023-03-13T17:05:19.701Z,16.99
2023-03-13T17:07:53.434Z,16.62
2023-03-13T17:10:34.920Z,16.48
2023-03-13T17:13:06.961Z,16.40
2023-03-13T17:15:36.947Z,16.03
2023-03-13T17:18:05.517Z,16.24
2023-03-13T17:20:34.675Z,16.34
2023-03-13T17:23:10.591Z,16.41
2023-03-13T17:25:42.540Z,16.34
2023-03-13T17:28:15.472Z,16.33
2023-03-13T17:30:48.325Z,16.33
2023-03-13T17:38:30.873Z,15.99
2023-03-13T17:41:01.780Z,15.72
2023-03-13T17:43:32.614Z,15.71
2023-03-13T17:46:22.707Z,15.84
2023-03-13T17:48:54.453Z,15.87
2023-03-13T17:51:32.625Z,15.92
2023-03-13T17:54:02.515Z,16.30
2023-03-13T17:56:40.455Z,15.95
2023-03-13T18:01:59.024Z,15.74
2023-03-13T18:04:45.846Z,15.64
2023-03-13T18:07:35.613Z,15.78
2023-03-13T18:10:20.719Z,15.73
2023-03-13T18:12:52.750Z,15.70
2023-03-13T18:18:01.926Z,15.64
2023-03-13T18:20:39.603Z,15.36
2023-03-13T18:23:10.052Z,15.59
2023-03-13T18:28:17.510Z,15.32
2023-03-13T18:30:55.818Z,15.38
2023-03-13T18:33:30.824Z,15.30
2023-03-13T18:36:07.572Z,15.24
2023-03-13T18:38:42.594Z,15.29
2023-03-13T18:41:15.711Z,14.91
2023-03-13T18:43:46.649Z,14.81
2023-03-13T18:46:27.998Z,14.80
2023-03-13T18:49:02.858Z,14.83
2023-03-13T18:51:32.522Z,14.74
2023-03-13T18:54:01.156Z,14.91
2023-03-13T18:56:33.455Z,14.58
2023-03-13T18:59:03.535Z,14.62
2023-03-13T19:01:34.839Z,14.83
2023-03-13T19:04:10.696Z,14.84
2023-03-13T19:06:43.611Z,14.62
2023-03-13T19:09:42.250Z,14.72
2023-03-13T19:12:14.666Z,14.30
2023-03-13T19:14:57.803Z,14.51
2023-03-13T19:17:29.558Z,14.54
2023-03-13T19:20:02.694Z,14.20
2023-03-13T19:22:39.030Z,14.13
2023-03-13T19:25:17.484Z,13.89
2023-03-13T19:27:53.830Z,13.91
2023-03-13T19:30:29.557Z,13.77
2023-03-13T19:33:12.086Z,13.89
2023-03-13T19:35:48.103Z,13.55
2023-03-13T19:38:26.834Z,13.58
2023-03-13T19:41:03.604Z,13.41
2023-03-13T19:43:32.583Z,13.35
2023-03-13T19:46:27.896Z,13.53
2023-03-13T19:49:01.006Z,13.48
2023-03-13T19:51:33.580Z,13.41
2023-03-13T19:54:06.545Z,13.28
2023-03-13T19:56:41.021Z,13.39
2023-03-13T20:01:56.088Z,13.56
2023-03-13T20:04:34.664Z,13.54
2023-03-13T20:07:13.350Z,13.34
2023-03-13T20:09:43.934Z,13.44
2023-03-13T20:12:14.591Z,13.68
2023-03-13T20:14:43.296Z,13.68
2023-03-13T20:17:14.805Z,13.53
2023-03-13T20:19:48.664Z,13.36
2023-03-13T20:22:23.567Z,13.26
2023-03-13T20:24:53.536Z,13.37
2023-03-13T20:27:22.327Z,13.41
2023-03-13T20:29:56.698Z,13.49
2023-03-13T20:32:25.966Z,13.30
2023-03-13T20:34:54.653Z,12.80
2023-03-13T20:37:25.446Z,13.46
2023-03-13T20:42:35.518Z,12.86
2023-03-13T20:45:12.540Z,13.15
2023-03-13T20:47:43.672Z,12.97
2023-03-13T20:50:14.014Z,13.13
2023-03-13T20:52:44.043Z,12.96
2023-03-13T20:55:22.728Z,12.93
2023-03-13T20:57:56.510Z,12.97
2023-03-13T21:00:25.013Z,12.72
2023-03-13T21:02:56.940Z,12.43
2023-03-13T21:05:33.511Z,12.62
2023-03-13T21:08:01.256Z,12.41
2023-03-13T21:10:31.019Z,12.45
2023-03-13T21:13:09.542Z,12.44
2023-03-13T21:15:37.886Z,12.60
2023-03-13T21:18:06.660Z,12.74
2023-03-13T21:20:38.572Z,12.55
2023-03-13T21:23:07.009Z,12.44
2023-03-13T21:25:34.790Z,12.49
2023-03-13T21:28:04.562Z,12.44
2023-03-13T21:30:39.624Z,12.43
2023-03-13T21:33:07.637Z,12.38
2023-03-13T21:35:35.810Z,12.17
2023-03-13T21:38:04.623Z,12.04
2023-03-13T21:40:40.724Z,11.79
2023-03-13T21:43:10.660Z,11.72
2023-03-13T21:45:39.366Z,11.52
2023-03-13T21:48:08.026Z,11.62
2023-03-13T21:50:36.283Z,11.59
2023-03-13T21:53:04.372Z,11.76
2023-03-13T21:55:35.493Z,11.66
2023-03-13T21:58:04.732Z,12.04
2023-03-13T22:00:36.084Z,11.99
2023-03-13T22:03:08.110Z,11.62
2023-03-13T22:05:42.497Z,11.64
2023-03-13T22:08:12.652Z,11.77
2023-03-13T22:10:40.740Z,11.55
2023-03-13T22:13:10.686Z,11.56
2023-03-13T22:15:39.103Z,11.77
2023-03-13T22:18:07.370Z,11.72
2023-03-13T22:20:35.678Z,11.72
2023-03-13T22:23:04.834Z,11.59
2023-03-13T22:25:32.672Z,11.42
2023-03-13T22:28:00.413Z,11.55
2023-03-13T22:30:30.591Z,11.63
2023-03-13T22:32:58.772Z,11.56
2023-03-13T22:35:26.535Z,11.53
2023-03-13T22:37:54.397Z,11.14
2023-03-13T22:40:22.284Z,11.59
2023-03-13T22:42:52.676Z,11.59
2023-03-13T22:45:20.838Z,11.29
2023-03-13T22:47:48.897Z,11.24
2023-03-13T22:50:20.564Z,11.25
2023-03-13T22:52:53.260Z,11.41
2023-03-13T22:55:22.730Z,11.41
2023-03-13T22:57:51.101Z,11.16
2023-03-13T23:00:19.126Z,11.24
2023-03-13T23:02:55.197Z,10.70
2023-03-13T23:05:23.278Z,10.96
2023-03-13T23:07:51.155Z,11.06
2023-03-13T23:10:22.991Z,11.34
2023-03-13T23:12:51.163Z,10.93
2023-03-13T23:15:19.408Z,11.24
2023-03-13T23:17:47.524Z,11.00
2023-03-13T23:20:16.341Z,11.09
2023-03-13T23:22:45.564Z,10.88
2023-03-13T23:25:14.173Z,10.52
2023-03-13T23:27:42.809Z,10.68
2023-03-13T23:30:14.240Z,10.60
2023-03-13T23:32:44.433Z,10.81
2023-03-13T23:35:19.496Z,10.86
2023-03-13T23:37:49.487Z,10.73
2023-03-13T23:40:17.426Z,10.76
2023-03-13T23:42:46.704Z,10.75
2023-03-13T23:45:14.605Z,10.72
2023-03-13T23:47:44.050Z,11.01
2023-03-13T23:50:16.100Z,10.80
2023-03-13T23:52:44.127Z,10.94
2023-03-13T23:55:15.277Z,10.81
2023-03-13T23:57:43.205Z,10.81
